createdAt,value
2023-10-23T00:00:51.436Z,1008.70
2023-10-23T00:01:51.346Z,1008.70
2023-10-23T00:02:51.426Z,1008.69
2023-10-23T00:03:51.744Z,1008.74
2023-10-23T00:04:51.424Z,1008.72
2023-10-23T00:05:51.317Z,1008.74
2023-10-23T00:06:51.359Z,1008.76
2023-10-23T00:07:51.309Z,1008.76
2023-10-23T00:08:51.298Z,1008.74
2023-10-23T00:09:51.369Z,1008.78
2023-10-23T00:10:51.285Z,1008.79
2023-10-23T00:11:51.281Z,1008.82
2023-10-23T00:12:51.313Z,1008.83
2023-10-23T00:13:51.257Z,1008.81
2023-10-23T00:14:51.249Z,1008.82
2023-10-23T00:15:51.277Z,1008.85
2023-10-23T00:16:51.327Z,1008.84
2023-10-23T00:17:51.280Z,1008.84
2023-10-23T00:18:51.263Z,1008.83
2023-10-23T00:19:51.301Z,1008.85
2023-10-23T00:20:51.266Z,1008.83
2023-10-23T00:21:51.267Z,1008.79
2023-10-23T00:22:51.192Z,1008.79
2023-10-23T00:23:51.183Z,1008.84
2023-10-23T00:24:51.213Z,1008.83
2023-10-23T00:25:51.172Z,1008.82
2023-10-23T00:26:51.164Z,1008.85
2023-10-23T00:27:51.231Z,1008.87
2023-10-23T00:28:51.165Z,1008.86
2023-10-23T00:29:51.141Z,1008.86
2023-10-23T00:30:51.229Z,1008.84
2023-10-23T00:31:51.128Z,1008.87
2023-10-23T00:32:51.198Z,1008.89
2023-10-23T00:33:51.192Z,1008.86
2023-10-23T00:34:51.104Z,1008.91
2023-10-23T00:35:51.099Z,1008.92
2023-10-23T00:36:51.118Z,1008.93
2023-10-23T00:37:51.080Z,1008.94
2023-10-23T00:38:51.078Z,1008.95
2023-10-23T00:39:51.112Z,1008.94
2023-10-23T00:40:51.060Z,1008.97
2023-10-23T00:41:51.055Z,1008.97
2023-10-23T00:42:51.063Z,1008.96
2023-10-23T00:43:51.066Z,1008.95
2023-10-23T00:44:51.026Z,1008.94
2023-10-23T00:45:51.119Z,1008.95
2023-10-23T00:46:51.048Z,1008.96
2023-10-23T00:47:51.044Z,1008.97
2023-10-23T00:48:51.045Z,1008.97
2023-10-23T00:49:50.987Z,1008.96
2023-10-23T00:50:51.040Z,1008.96
2023-10-23T00:51:51.014Z,1008.94
2023-10-23T00:52:50.966Z,1008.95
2023-10-23T00:53:50.960Z,1008.94
2023-10-23T00:54:50.969Z,1008.94
2023-10-23T00:55:50.946Z,1008.93
2023-10-23T00:56:50.941Z,1008.93
2023-10-23T00:57:50.988Z,1008.91
2023-10-23T00:58:50.934Z,1008.91
2023-10-23T00:59:50.920Z,1008.90
2023-10-23T01:00:50.981Z,1008.90
2023-10-23T01:01:50.923Z,1008.91
2023-10-23T01:02:50.970Z,1008.90
2023-10-23T01:03:50.939Z,1008.89
2023-10-23T01:04:50.880Z,1008.90
2023-10-23T01:05:50.899Z,1008.90
2023-10-23T01:06:50.886Z,1008.89
2023-10-23T01:07:50.884Z,1008.92
2023-10-23T01:08:50.852Z,1008.94
2023-10-23T01:09:50.869Z,1008.96
2023-10-23T01:10:50.847Z,1009.03
2023-10-23T01:11:50.830Z,1009.01
2023-10-23T01:12:50.886Z,1009.00
2023-10-23T01:13:50.818Z,1009.00
2023-10-23T01:14:50.814Z,1009.04
2023-10-23T01:15:50.838Z,1009.04
2023-10-23T01:16:50.845Z,1009.04
2023-10-23T01:17:50.808Z,1009.02
2023-10-23T01:18:50.868Z,1009.03
2023-10-23T01:19:50.777Z,1009.04
2023-10-23T01:20:50.764Z,1009.03
2023-10-23T01:21:50.791Z,1009.03
2023-10-23T01:22:50.752Z,1009.00
2023-10-23T01:23:50.743Z,1009.01
2023-10-23T01:24:50.801Z,1009.01
2023-10-23T01:25:50.731Z,1009.01
2023-10-23T01:26:50.719Z,1009.02
2023-10-23T01:27:50.779Z,1008.99
2023-10-23T01:28:50.703Z,1009.01
2023-10-23T01:29:50.699Z,1009.01
2023-10-23T01:30:50.807Z,1009.04
2023-10-23T01:31:50.689Z,1009.06
2023-10-23T01:32:50.791Z,1009.05
2023-10-23T01:33:50.719Z,1009.05
2023-10-23T01:34:50.661Z,1009.05
2023-10-23T01:35:50.643Z,1009.07
2023-10-23T01:36:50.669Z,1009.03
2023-10-23T01:37:50.629Z,1009.09
2023-10-23T01:38:50.619Z,1009.08
2023-10-23T01:39:50.684Z,1009.06
2023-10-23T01:40:50.604Z,1009.08
2023-10-23T01:41:50.594Z,1009.10
2023-10-23T01:42:50.697Z,1009.13
2023-10-23T01:43:50.576Z,1009.15
2023-10-23T01:44:50.570Z,1009.13
2023-10-23T01:45:50.597Z,1009.15
2023-10-23T01:46:50.604Z,1009.15
2023-10-23T01:47:50.589Z,1009.18
2023-10-23T01:48:50.602Z,1009.17
2023-10-23T01:49:50.522Z,1009.17
2023-10-23T01:50:50.515Z,1009.17
2023-10-23T01:51:50.560Z,1009.17
2023-10-23T01:52:50.512Z,1009.19
2023-10-23T01:53:50.492Z,1009.17
2023-10-23T01:54:50.528Z,1009.15
2023-10-23T01:55:50.484Z,1009.15
2023-10-23T01:56:50.467Z,1009.12
2023-10-23T01:57:50.488Z,1009.10
2023-10-23T01:58:50.456Z,1009.11
2023-10-23T01:59:50.441Z,1009.09
2023-10-23T02:00:50.521Z,1009.08
2023-10-23T02:01:50.520Z,1009.07
2023-10-23T02:02:50.572Z,1009.13
2023-10-23T02:03:50.607Z,1009.12
2023-10-23T02:04:50.409Z,1009.12
2023-10-23T02:05:50.390Z,1009.09
2023-10-23T02:06:50.430Z,1009.10
2023-10-23T02:07:50.376Z,1009.09
2023-10-23T02:08:50.366Z,1009.11
2023-10-23T02:09:50.389Z,1009.14
2023-10-23T02:10:50.353Z,1009.16
2023-10-23T02:11:50.341Z,1009.17
2023-10-23T02:12:50.354Z,1009.15
2023-10-23T02:13:50.324Z,1009.20
2023-10-23T02:14:50.317Z,1009.20
2023-10-23T02:15:50.362Z,1009.20
2023-10-23T02:16:50.341Z,1009.20
2023-10-23T02:17:50.469Z,1009.24
2023-10-23T02:18:50.376Z,1009.19
2023-10-23T02:19:50.279Z,1009.21
2023-10-23T02:20:50.272Z,1009.21
2023-10-23T02:21:50.281Z,1009.22
2023-10-23T02:22:50.252Z,1009.20
2023-10-23T02:23:56.785Z,1009.25
2023-10-23T02:24:50.253Z,1009.24
2023-10-23T02:25:50.218Z,1009.24
2023-10-23T02:26:50.215Z,1009.25
2023-10-23T02:27:50.213Z,1009.25
2023-10-23T02:28:50.196Z,1009.25
2023-10-23T02:29:50.186Z,1009.27
2023-10-23T02:30:50.264Z,1009.31
2023-10-23T02:31:50.172Z,1009.31
2023-10-23T02:32:50.184Z,1009.32
2023-10-23T02:33:50.187Z,1009.34
2023-10-23T02:34:50.160Z,1009.33
2023-10-23T02:35:50.140Z,1009.36
2023-10-23T02:36:50.196Z,1009.36
2023-10-23T02:37:50.128Z,1009.36
2023-10-23T02:38:50.118Z,1009.40
2023-10-23T02:39:50.180Z,1009.41
2023-10-23T02:40:50.102Z,1009.41
2023-10-23T02:41:50.094Z,1009.46
2023-10-23T02:42:50.155Z,1009.46
2023-10-23T02:43:50.073Z,1009.49
2023-10-23T02:44:50.072Z,1009.49
2023-10-23T02:45:50.143Z,1009.51
2023-10-23T02:46:51.912Z,1009.50
2023-10-23T02:47:50.078Z,1009.51
2023-10-23T02:48:50.055Z,1009.52
2023-10-23T02:49:50.033Z,1009.51
2023-10-23T02:50:50.020Z,1009.51
2023-10-23T02:51:50.042Z,1009.49
2023-10-23T02:52:50.009Z,1009.54
2023-10-23T02:53:49.997Z,1009.54
2023-10-23T02:54:50.004Z,1009.53
2023-10-23T02:55:49.981Z,1009.55
2023-10-23T02:56:49.990Z,1009.55
2023-10-23T02:57:50.058Z,1009.54
2023-10-23T02:58:49.957Z,1009.56
2023-10-23T02:59:49.947Z,1009.57
2023-10-23T03:00:49.976Z,1009.57
2023-10-23T03:01:49.956Z,1009.63
2023-10-23T03:02:49.999Z,1009.61
2023-10-23T03:03:50.030Z,1009.62
2023-10-23T03:04:49.907Z,1009.62
2023-10-23T03:05:49.899Z,1009.64
2023-10-23T03:06:49.911Z,1009.64
2023-10-23T03:07:49.879Z,1009.61
2023-10-23T03:08:49.886Z,1009.61
2023-10-23T03:09:49.884Z,1009.60
2023-10-23T03:10:49.855Z,1009.59
2023-10-23T03:11:49.852Z,1009.62
2023-10-23T03:12:49.936Z,1009.65
2023-10-23T03:13:49.843Z,1009.64
2023-10-23T03:14:49.816Z,1009.66
2023-10-23T03:15:49.868Z,1009.67
2023-10-23T03:16:49.850Z,1009.71
2023-10-23T03:17:49.902Z,1009.70
2023-10-23T03:18:49.864Z,1009.73
2023-10-23T03:19:49.773Z,1009.70
2023-10-23T03:20:49.772Z,1009.70
2023-10-23T03:21:49.771Z,1009.73
2023-10-23T03:22:49.749Z,1009.69
2023-10-23T03:23:49.769Z,1009.71
2023-10-23T03:24:49.792Z,1009.72
2023-10-23T03:25:49.721Z,1009.72
2023-10-23T03:26:49.713Z,1009.75
2023-10-23T03:27:49.732Z,1009.73
2023-10-23T03:28:49.697Z,1009.73
2023-10-23T03:29:49.681Z,1009.72
2023-10-23T03:30:49.750Z,1009.73
2023-10-23T03:31:49.705Z,1009.70
2023-10-23T03:32:49.687Z,1009.73
2023-10-23T03:33:49.677Z,1009.72
2023-10-23T03:34:49.648Z,1009.74
2023-10-23T03:35:49.634Z,1009.73
2023-10-23T03:36:49.666Z,1009.69
2023-10-23T03:37:49.619Z,1009.73
2023-10-23T03:38:49.613Z,1009.73
2023-10-23T03:39:49.618Z,1009.70
2023-10-23T03:40:49.595Z,1009.71
2023-10-23T03:41:49.591Z,1009.75
2023-10-23T03:42:49.591Z,1009.73
2023-10-23T03:43:49.572Z,1009.76
2023-10-23T03:44:49.555Z,1009.71
2023-10-23T03:45:49.612Z,1009.70
2023-10-23T03:46:49.590Z,1009.74
2023-10-23T03:47:49.537Z,1009.73
2023-10-23T03:48:49.544Z,1009.71
2023-10-23T03:49:49.513Z,1009.69
2023-10-23T03:50:49.501Z,1009.69
2023-10-23T03:51:49.532Z,1009.69
2023-10-23T03:52:49.489Z,1009.70
2023-10-23T03:53:49.475Z,1009.73
2023-10-23T03:54:49.497Z,1009.77
2023-10-23T03:55:49.468Z,1009.73
2023-10-23T03:56:49.448Z,1009.75
2023-10-23T03:57:49.486Z,1009.74
2023-10-23T03:58:49.431Z,1009.78
2023-10-23T03:59:49.426Z,1009.75
2023-10-23T04:00:49.442Z,1009.76
2023-10-23T04:01:49.415Z,1009.78
2023-10-23T04:02:49.428Z,1009.78
2023-10-23T04:03:49.463Z,1009.78
2023-10-23T04:04:49.440Z,1009.81
2023-10-23T04:05:49.380Z,1009.83
2023-10-23T04:06:49.371Z,1009.87
2023-10-23T04:07:49.348Z,1009.87
2023-10-23T04:08:49.341Z,1009.86
2023-10-23T04:09:49.433Z,1009.91
2023-10-23T04:10:49.324Z,1009.90
2023-10-23T04:11:49.312Z,1009.89
2023-10-23T04:12:49.423Z,1009.89
2023-10-23T04:13:49.300Z,1009.86
2023-10-23T04:14:49.286Z,1009.85
2023-10-23T04:15:49.349Z,1009.85
2023-10-23T04:16:49.333Z,1009.85
2023-10-23T04:17:49.272Z,1009.85
2023-10-23T04:18:49.274Z,1009.86
2023-10-23T04:19:49.283Z,1009.83
2023-10-23T04:20:49.244Z,1009.84
2023-10-23T04:21:49.273Z,1009.84
2023-10-23T04:22:49.228Z,1009.82
2023-10-23T04:23:49.216Z,1009.87
2023-10-23T04:24:49.234Z,1009.89
2023-10-23T04:25:49.206Z,1009.92
2023-10-23T04:26:49.192Z,1009.91
2023-10-23T04:27:49.209Z,1009.93
2023-10-23T04:28:49.186Z,1009.96
2023-10-23T04:29:49.166Z,1009.92
2023-10-23T04:30:49.194Z,1009.97
2023-10-23T04:31:49.178Z,1009.98
2023-10-23T04:32:49.161Z,1009.98
2023-10-23T04:33:49.178Z,1010.00
2023-10-23T04:34:49.122Z,1010.01
2023-10-23T04:35:49.115Z,1010.03
2023-10-23T04:36:49.127Z,1010.05
2023-10-23T04:37:49.099Z,1010.08
2023-10-23T04:38:49.096Z,1010.07
2023-10-23T04:39:49.119Z,1010.13
2023-10-23T04:40:49.067Z,1010.15
2023-10-23T04:41:49.062Z,1010.15
2023-10-23T04:42:49.088Z,1010.17
2023-10-23T04:43:49.090Z,1010.15
2023-10-23T04:44:49.038Z,1010.15
2023-10-23T04:45:49.078Z,1010.14
2023-10-23T04:46:49.054Z,1010.14
2023-10-23T04:47:49.049Z,1010.11
2023-10-23T04:48:49.038Z,1010.14
2023-10-23T04:49:49.012Z,1010.17
2023-10-23T04:50:49.001Z,1010.13
2023-10-23T04:51:49.021Z,1010.12
2023-10-23T04:52:48.961Z,1010.11
2023-10-23T04:53:48.959Z,1010.12
2023-10-23T04:54:48.973Z,1010.15
2023-10-23T04:55:48.944Z,1010.13
2023-10-23T04:56:48.930Z,1010.14
2023-10-23T04:57:49.026Z,1010.16
2023-10-23T04:58:48.917Z,1010.18
2023-10-23T04:59:48.902Z,1010.16
2023-10-23T05:00:48.996Z,1010.17
2023-10-23T05:01:48.912Z,1010.17
2023-10-23T05:02:48.897Z,1010.20
2023-10-23T05:03:52.259Z,1010.19
2023-10-23T05:04:48.922Z,1010.19
2023-10-23T05:05:48.845Z,1010.16
2023-10-23T05:06:48.943Z,1010.18
2023-10-23T05:07:48.836Z,1010.20
2023-10-23T05:08:48.822Z,1010.24
2023-10-23T05:09:48.833Z,1010.22
2023-10-23T05:10:48.839Z,1010.20
2023-10-23T05:11:48.793Z,1010.21
2023-10-23T05:12:48.869Z,1010.18
2023-10-23T05:13:48.794Z,1010.16
2023-10-23T05:14:48.773Z,1010.19
2023-10-23T05:15:48.802Z,1010.19
2023-10-23T05:16:48.767Z,1010.21
2023-10-23T05:17:48.783Z,1010.24
2023-10-23T05:18:48.916Z,1010.24
2023-10-23T05:19:48.726Z,1010.25
2023-10-23T05:20:48.715Z,1010.24
2023-10-23T05:21:48.726Z,1010.24
2023-10-23T05:22:48.699Z,1010.26
2023-10-23T05:23:48.694Z,1010.26
2023-10-23T05:24:48.724Z,1010.27
2023-10-23T05:25:48.679Z,1010.22
2023-10-23T05:26:48.662Z,1010.25
2023-10-23T05:27:48.760Z,1010.25
2023-10-23T05:28:48.646Z,1010.27
2023-10-23T05:29:48.628Z,1010.28
2023-10-23T05:30:48.659Z,1010.29
2023-10-23T05:31:48.649Z,1010.33
2023-10-23T05:32:48.601Z,1010.34
2023-10-23T05:33:48.612Z,1010.32
2023-10-23T05:34:48.576Z,1010.40
2023-10-23T05:35:48.581Z,1010.40
2023-10-23T05:36:48.666Z,1010.43
2023-10-23T05:37:48.550Z,1010.42
2023-10-23T05:38:48.539Z,1010.43
2023-10-23T05:39:48.572Z,1010.40
2023-10-23T05:40:48.522Z,1010.42
2023-10-23T05:41:48.510Z,1010.45
2023-10-23T05:42:48.542Z,1010.44
2023-10-23T05:43:48.490Z,1010.47
2023-10-23T05:44:48.483Z,1010.53
2023-10-23T05:45:48.609Z,1010.54
2023-10-23T05:46:48.479Z,1010.54
2023-10-23T05:47:48.574Z,1010.53
2023-10-23T05:48:48.470Z,1010.56
2023-10-23T05:49:48.439Z,1010.56
2023-10-23T05:50:48.424Z,1010.59
2023-10-23T05:51:48.459Z,1010.59
2023-10-23T05:52:48.409Z,1010.60
2023-10-23T05:53:48.397Z,1010.57
2023-10-23T05:54:48.401Z,1010.61
2023-10-23T05:55:48.378Z,1010.58
2023-10-23T05:56:48.369Z,1010.60
2023-10-23T05:57:48.405Z,1010.61
2023-10-23T05:58:48.347Z,1010.65
2023-10-23T05:59:48.348Z,1010.71
2023-10-23T06:00:48.369Z,1010.70
2023-10-23T06:01:48.390Z,1010.69
2023-10-23T06:02:48.343Z,1010.71
2023-10-23T06:03:48.350Z,1010.70
2023-10-23T06:04:48.359Z,1010.72
2023-10-23T06:05:48.301Z,1010.70
2023-10-23T06:06:48.317Z,1010.70
2023-10-23T06:07:48.354Z,1010.73
2023-10-23T06:08:48.255Z,1010.70
2023-10-23T06:09:48.265Z,1010.73
2023-10-23T06:10:48.239Z,1010.70
2023-10-23T06:11:48.232Z,1010.72
2023-10-23T06:12:48.239Z,1010.73
2023-10-23T06:13:48.210Z,1010.71
2023-10-23T06:14:48.201Z,1010.73
2023-10-23T06:15:48.235Z,1010.73
2023-10-23T06:16:48.240Z,1010.73
2023-10-23T06:17:48.237Z,1010.80
2023-10-23T06:18:48.197Z,1010.75
2023-10-23T06:19:48.152Z,1010.76
2023-10-23T06:20:48.160Z,1010.80
2023-10-23T06:21:48.205Z,1010.83
2023-10-23T06:22:48.126Z,1010.83
2023-10-23T06:23:48.116Z,1010.82
2023-10-23T06:24:48.186Z,1010.84
2023-10-23T06:25:48.096Z,1010.88
2023-10-23T06:26:48.098Z,1010.87
2023-10-23T06:27:48.129Z,1010.90
2023-10-23T06:28:48.067Z,1010.89
2023-10-23T06:29:48.069Z,1010.91
2023-10-23T06:30:48.092Z,1010.92
2023-10-23T06:31:48.087Z,1010.95
2023-10-23T06:32:48.056Z,1010.95
2023-10-23T06:33:48.041Z,1010.93
2023-10-23T06:34:48.008Z,1010.97
2023-10-23T06:35:47.994Z,1010.94
2023-10-23T06:36:48.024Z,1010.90
2023-10-23T06:37:47.975Z,1010.89
2023-10-23T06:38:47.965Z,1010.89
2023-10-23T06:39:47.958Z,1010.90
2023-10-23T06:40:47.947Z,1010.87
2023-10-23T06:41:47.947Z,1010.89
2023-10-23T06:42:47.925Z,1010.91
2023-10-23T06:43:47.927Z,1010.86
2023-10-23T06:44:47.970Z,1010.91
2023-10-23T06:46:47.902Z,1010.94
2023-10-23T06:47:47.910Z,1010.95
2023-10-23T06:48:47.889Z,1010.94
2023-10-23T06:49:47.867Z,1010.92
2023-10-23T06:50:47.870Z,1010.93
2023-10-23T06:51:47.845Z,1010.93
2023-10-23T06:52:47.835Z,1010.88
2023-10-23T06:53:47.836Z,1010.90
2023-10-23T06:54:47.820Z,1010.90
2023-10-23T06:55:47.810Z,1010.91
2023-10-23T06:56:47.861Z,1010.88
2023-10-23T06:57:47.781Z,1010.86
2023-10-23T06:58:47.773Z,1010.87
2023-10-23T06:59:47.799Z,1010.86
2023-10-23T07:00:47.796Z,1010.86
2023-10-23T07:01:47.781Z,1010.85
2023-10-23T07:02:47.814Z,1010.85
2023-10-23T07:03:47.776Z,1010.86
2023-10-23T07:04:47.725Z,1010.82
2023-10-23T07:05:47.769Z,1010.84
2023-10-23T07:06:47.716Z,1010.82
2023-10-23T07:07:47.707Z,1010.82
2023-10-23T07:08:47.754Z,1010.82
2023-10-23T07:09:47.691Z,1010.81
2023-10-23T07:10:47.678Z,1010.88
2023-10-23T07:11:47.689Z,1010.92
2023-10-23T07:12:47.679Z,1010.98
2023-10-23T07:13:47.652Z,1010.99
2023-10-23T07:14:47.684Z,1011.03
2023-10-23T07:15:47.735Z,1011.10
2023-10-23T07:16:47.708Z,1011.12
2023-10-23T07:17:47.668Z,1011.13
2023-10-23T07:18:47.687Z,1011.16
2023-10-23T07:19:47.609Z,1011.17
2023-10-23T07:20:47.618Z,1011.14
2023-10-23T07:21:47.590Z,1011.18
2023-10-23T07:22:47.576Z,1011.16
2023-10-23T07:23:47.586Z,1011.21
2023-10-23T07:24:47.558Z,1011.23
2023-10-23T07:25:47.551Z,1011.20
2023-10-23T07:26:47.602Z,1011.23
2023-10-23T07:27:47.542Z,1011.24
2023-10-23T07:28:47.537Z,1011.23
2023-10-23T07:29:47.562Z,1011.25
2023-10-23T07:30:47.507Z,1011.28
2023-10-23T07:31:47.542Z,1011.28
2023-10-23T07:32:47.619Z,1011.27
2023-10-23T07:33:47.511Z,1011.25
2023-10-23T07:34:47.478Z,1011.26
2023-10-23T07:35:53.337Z,1011.27
2023-10-23T07:36:47.490Z,1011.24
2023-10-23T07:37:47.520Z,1011.27
2023-10-23T07:38:47.431Z,1011.26
2023-10-23T07:39:47.445Z,1011.25
2023-10-23T07:40:47.413Z,1011.29
2023-10-23T07:41:47.405Z,1011.30
2023-10-23T07:42:47.437Z,1011.28
2023-10-23T07:43:47.395Z,1011.33
2023-10-23T07:44:47.373Z,1011.33
2023-10-23T07:45:48.799Z,1011.35
2023-10-23T07:46:47.468Z,1011.34
2023-10-23T07:47:47.386Z,1011.38
2023-10-23T07:48:47.531Z,1011.36
2023-10-23T07:49:47.333Z,1011.37
2023-10-23T07:50:47.318Z,1011.37
2023-10-23T07:51:47.356Z,1011.37
2023-10-23T07:52:47.302Z,1011.33
2023-10-23T07:53:47.304Z,1011.31
2023-10-23T07:54:47.303Z,1011.37
2023-10-23T07:55:47.288Z,1011.39
2023-10-23T07:56:47.288Z,1011.36
2023-10-23T07:57:47.303Z,1011.37
2023-10-23T07:58:47.251Z,1011.39
2023-10-23T07:59:47.244Z,1011.41
2023-10-23T08:00:47.256Z,1011.38
2023-10-23T08:01:47.358Z,1011.44
2023-10-23T08:02:47.317Z,1011.41
2023-10-23T08:03:47.324Z,1011.43
2023-10-23T08:04:47.341Z,1011.42
2023-10-23T08:05:47.198Z,1011.43
2023-10-23T08:06:47.221Z,1011.47
2023-10-23T08:07:47.175Z,1011.54
2023-10-23T08:08:47.169Z,1011.54
2023-10-23T08:09:47.268Z,1011.55
2023-10-23T08:10:47.153Z,1011.55
2023-10-23T08:11:47.157Z,1011.55
2023-10-23T08:12:47.162Z,1011.56
2023-10-23T08:13:47.133Z,1011.57
2023-10-23T08:14:47.125Z,1011.58
2023-10-23T08:15:47.242Z,1011.60
2023-10-23T08:16:47.167Z,1011.57
2023-10-23T08:17:47.202Z,1011.56
2023-10-23T08:18:47.173Z,1011.57
2023-10-23T08:19:47.198Z,1011.60
2023-10-23T08:20:47.087Z,1011.60
2023-10-23T08:21:47.094Z,1011.65
2023-10-23T08:22:47.069Z,1011.62
2023-10-23T08:23:47.053Z,1011.62
2023-10-23T08:24:47.079Z,1011.59
2023-10-23T08:25:47.042Z,1011.62
2023-10-23T08:26:47.042Z,1011.61
2023-10-23T08:27:47.064Z,1011.64
2023-10-23T08:29:01.330Z,1011.63
2023-10-23T08:29:47.019Z,1011.60
2023-10-23T08:30:47.019Z,1011.59
2023-10-23T08:31:47.077Z,1011.59
2023-10-23T08:32:53.019Z,1011.58
2023-10-23T08:33:47.025Z,1011.58
2023-10-23T08:34:47.003Z,1011.54
2023-10-23T08:35:46.969Z,1011.52
2023-10-23T08:36:47.020Z,1011.49
2023-10-23T08:37:47.008Z,1011.52
2023-10-23T08:38:46.946Z,1011.49
2023-10-23T08:39:46.942Z,1011.50
2023-10-23T08:40:46.932Z,1011.50
2023-10-23T08:41:46.922Z,1011.52
2023-10-23T08:42:46.923Z,1011.56
2023-10-23T08:43:46.910Z,1011.56
2023-10-23T08:44:46.907Z,1011.55
2023-10-23T08:45:46.912Z,1011.55
2023-10-23T08:46:46.916Z,1011.57
2023-10-23T08:47:46.943Z,1011.58
2023-10-23T08:48:46.901Z,1011.57
2023-10-23T08:49:46.861Z,1011.58
2023-10-23T08:50:46.863Z,1011.57
2023-10-23T08:51:46.899Z,1011.59
2023-10-23T08:52:46.847Z,1011.61
2023-10-23T08:53:51.958Z,1011.57
2023-10-23T08:54:48.232Z,1011.58
2023-10-23T08:55:46.825Z,1011.61
2023-10-23T08:56:46.816Z,1011.61
2023-10-23T08:57:46.827Z,1011.60
2023-10-23T08:58:46.803Z,1011.58
2023-10-23T08:59:46.796Z,1011.61
2023-10-23T09:00:46.852Z,1011.62
2023-10-23T09:01:46.832Z,1011.61
2023-10-23T09:02:51.540Z,1011.66
2023-10-23T09:04:04.574Z,1011.62
2023-10-23T09:04:47.303Z,1011.60
2023-10-23T09:05:46.779Z,1011.59
2023-10-23T09:06:46.778Z,1011.60
2023-10-23T09:07:46.744Z,1011.54
2023-10-23T09:08:46.735Z,1011.58
2023-10-23T09:09:46.751Z,1011.56
2023-10-23T09:10:46.720Z,1011.55
2023-10-23T09:11:47.239Z,1011.58
2023-10-23T09:12:46.765Z,1011.58
2023-10-23T09:13:46.710Z,1011.57
2023-10-23T09:14:46.695Z,1011.59
2023-10-23T09:15:46.753Z,1011.58
2023-10-23T09:16:46.756Z,1011.60
2023-10-23T09:17:46.688Z,1011.61
2023-10-23T09:18:46.752Z,1011.58
2023-10-23T09:19:46.664Z,1011.58
2023-10-23T09:20:46.670Z,1011.57
2023-10-23T09:21:46.669Z,1011.59
2023-10-23T09:22:46.647Z,1011.57
2023-10-23T09:23:46.637Z,1011.57
2023-10-23T09:24:46.713Z,1011.61
2023-10-23T09:25:46.622Z,1011.61
2023-10-23T09:26:46.619Z,1011.61
2023-10-23T09:27:46.677Z,1011.64
2023-10-23T09:28:46.611Z,1011.61
2023-10-23T09:29:46.598Z,1011.64
2023-10-23T09:30:46.704Z,1011.60
2023-10-23T09:31:46.653Z,1011.60
2023-10-23T09:32:46.593Z,1011.58
2023-10-23T09:33:46.705Z,1011.56
2023-10-23T09:34:46.564Z,1011.56
2023-10-23T09:35:46.560Z,1011.53
2023-10-23T09:36:46.625Z,1011.54
2023-10-23T09:37:46.546Z,1011.53
2023-10-23T09:38:46.541Z,1011.51
2023-10-23T09:39:46.592Z,1011.47
2023-10-23T09:40:46.531Z,1011.48
2023-10-23T09:41:46.534Z,1011.43
2023-10-23T09:42:46.579Z,1011.43
2023-10-23T09:43:46.518Z,1011.42
2023-10-23T09:44:46.505Z,1011.46
2023-10-23T09:45:46.516Z,1011.44
2023-10-23T09:46:46.526Z,1011.48
2023-10-23T09:47:46.520Z,1011.48
2023-10-23T09:48:46.532Z,1011.43
2023-10-23T09:49:46.777Z,1011.43
2023-10-23T09:50:46.491Z,1011.47
2023-10-23T09:51:46.469Z,1011.45
2023-10-23T09:52:46.456Z,1011.42
2023-10-23T09:53:46.450Z,1011.43
2023-10-23T09:54:46.469Z,1011.39
2023-10-23T09:55:46.437Z,1011.40
2023-10-23T09:56:46.435Z,1011.39
2023-10-23T09:57:46.493Z,1011.39
2023-10-23T09:58:46.422Z,1011.41
2023-10-23T09:59:46.407Z,1011.43
2023-10-23T10:00:46.482Z,1011.43
2023-10-23T10:01:46.436Z,1011.45
2023-10-23T10:02:46.479Z,1011.46
2023-10-23T10:03:46.463Z,1011.47
2023-10-23T10:04:46.420Z,1011.47
2023-10-23T10:05:46.378Z,1011.50
2023-10-23T10:06:46.402Z,1011.48
2023-10-23T10:07:46.368Z,1011.47
2023-10-23T10:08:46.366Z,1011.44
2023-10-23T10:09:46.404Z,1011.49
2023-10-23T10:10:46.353Z,1011.48
2023-10-23T10:11:46.345Z,1011.48
2023-10-23T10:12:46.370Z,1011.47
2023-10-23T10:13:46.334Z,1011.46
2023-10-23T10:14:46.327Z,1011.46
2023-10-23T10:15:46.346Z,1011.47
2023-10-23T10:16:46.344Z,1011.48
2023-10-23T10:17:46.342Z,1011.46
2023-10-23T10:18:46.351Z,1011.45
2023-10-23T10:19:46.303Z,1011.44
2023-10-23T10:20:46.299Z,1011.40
2023-10-23T10:21:46.311Z,1011.41
2023-10-23T10:22:46.285Z,1011.37
2023-10-23T10:23:46.275Z,1011.39
2023-10-23T10:24:46.297Z,1011.33
2023-10-23T10:25:46.268Z,1011.40
2023-10-23T10:26:46.267Z,1011.35
2023-10-23T10:27:46.303Z,1011.40
2023-10-23T10:28:46.252Z,1011.44
2023-10-23T10:29:46.252Z,1011.40
2023-10-23T10:30:46.384Z,1011.40
2023-10-23T10:31:47.362Z,1011.42
2023-10-23T10:34:24.807Z,1011.39
2023-10-23T10:34:27.538Z,1011.42
2023-10-23T10:34:46.302Z,1011.40
2023-10-23T10:35:46.296Z,1011.44
2023-10-23T10:36:47.988Z,1011.45
2023-10-23T10:37:46.232Z,1011.47
2023-10-23T10:38:46.197Z,1011.46
2023-10-23T10:39:46.243Z,1011.43
2023-10-23T10:40:46.186Z,1011.40
2023-10-23T10:41:46.184Z,1011.43
2023-10-23T10:42:46.204Z,1011.39
2023-10-23T10:43:46.167Z,1011.38
2023-10-23T10:44:46.176Z,1011.36
2023-10-23T10:45:46.181Z,1011.34
2023-10-23T10:46:48.960Z,1011.30
2023-10-23T10:47:46.227Z,1011.33
2023-10-23T10:48:46.237Z,1011.31
2023-10-23T10:49:46.211Z,1011.28
2023-10-23T10:50:46.167Z,1011.27
2023-10-23T10:51:46.214Z,1011.26
2023-10-23T10:52:46.163Z,1011.24
2023-10-23T10:53:46.135Z,1011.23
2023-10-23T10:54:46.168Z,1011.25
2023-10-23T10:55:46.126Z,1011.24
2023-10-23T10:56:46.094Z,1011.26
2023-10-23T10:57:46.217Z,1011.25
2023-10-23T10:58:46.090Z,1011.22
2023-10-23T10:59:46.076Z,1011.19
2023-10-23T11:00:46.215Z,1011.21
2023-10-23T11:01:46.224Z,1011.19
2023-10-23T11:02:46.084Z,1011.20
2023-10-23T11:03:46.117Z,1011.18
2023-10-23T11:04:46.089Z,1011.21
2023-10-23T11:05:46.050Z,1011.21
2023-10-23T11:06:46.052Z,1011.20
2023-10-23T11:07:46.044Z,1011.20
2023-10-23T11:08:46.040Z,1011.16
2023-10-23T11:09:46.030Z,1011.12
2023-10-23T11:10:46.033Z,1011.10
2023-10-23T11:11:46.012Z,1011.08
2023-10-23T11:12:46.086Z,1011.07
2023-10-23T11:13:46.014Z,1011.09
2023-10-23T11:14:45.990Z,1011.07
2023-10-23T11:15:46.019Z,1011.07
2023-10-23T11:16:46.076Z,1011.07
2023-10-23T11:17:46.054Z,1011.07
2023-10-23T11:18:45.978Z,1011.05
2023-10-23T11:19:45.965Z,1011.09
2023-10-23T11:20:45.955Z,1011.11
2023-10-23T11:21:45.988Z,1011.10
2023-10-23T11:22:45.958Z,1011.11
2023-10-23T11:23:45.974Z,1011.10
2023-10-23T11:24:45.952Z,1011.08
2023-10-23T11:25:45.931Z,1011.04
2023-10-23T11:26:45.929Z,1011.07
2023-10-23T11:27:45.956Z,1011.04
2023-10-23T11:28:45.913Z,1011.04
2023-10-23T11:29:45.922Z,1011.01
2023-10-23T11:30:46.020Z,1010.98
2023-10-23T11:31:45.949Z,1010.99
2023-10-23T11:32:45.937Z,1010.99
2023-10-23T11:33:45.983Z,1011.00
2023-10-23T11:34:45.885Z,1011.02
2023-10-23T11:35:45.876Z,1011.01
2023-10-23T11:36:45.867Z,1011.02
2023-10-23T11:37:45.865Z,1011.03
2023-10-23T11:38:45.857Z,1011.03
2023-10-23T11:39:45.888Z,1011.06
2023-10-23T11:40:45.846Z,1011.01
2023-10-23T11:41:45.840Z,1011.05
2023-10-23T11:42:45.833Z,1011.02
2023-10-23T11:43:45.845Z,1011.06
2023-10-23T11:44:45.823Z,1011.06
2023-10-23T11:45:45.889Z,1011.03
2023-10-23T11:46:45.911Z,1011.08
2023-10-23T11:47:45.866Z,1011.06
2023-10-23T11:48:45.827Z,1011.06
2023-10-23T11:49:45.800Z,1011.06
2023-10-23T11:50:45.792Z,1011.08
2023-10-23T11:51:45.801Z,1011.05
2023-10-23T11:52:45.784Z,1011.08
2023-10-23T11:53:45.784Z,1011.06
2023-10-23T11:54:45.783Z,1011.08
2023-10-23T11:55:45.761Z,1011.08
2023-10-23T11:56:45.759Z,1011.05
2023-10-23T11:57:45.760Z,1011.04
2023-10-23T11:58:45.749Z,1011.09
2023-10-23T11:59:45.760Z,1011.05
2023-10-23T12:00:45.758Z,1011.03
2023-10-23T12:01:45.794Z,1011.04
2023-10-23T12:02:45.780Z,1011.03
2023-10-23T12:03:45.826Z,1011.03
2023-10-23T12:04:45.827Z,1011.01
2023-10-23T12:05:45.712Z,1011.03
2023-10-23T12:06:45.738Z,1011.04